createdAt,value
2022-11-29T05:01:04.818Z,11.85
2022-11-29T05:05:20.975Z,11.35
2022-11-29T05:09:34.335Z,11.80
2022-11-29T05:13:46.599Z,11.75
2022-11-29T05:18:00.448Z,12.57
2022-11-29T05:22:18.679Z,12.55
2022-11-29T05:26:28.240Z,12.18
2022-11-29T05:30:45.364Z,13.15
2022-11-29T05:35:10.249Z,12.40
2022-11-29T05:39:34.765Z,13.05
2022-11-29T05:43:48.721Z,11.93
2022-11-29T05:47:57.553Z,11.35
2022-11-29T05:52:17.023Z,12.70
2022-11-29T05:56:27.532Z,11.95
2022-11-29T06:00:39.318Z,12.70
2022-11-29T06:04:57.843Z,13.52
2022-11-29T06:09:12.442Z,12.80
2022-11-29T06:13:27.214Z,13.27
2022-11-29T06:17:46.802Z,13.43
2022-11-29T06:22:00.089Z,13.75
2022-11-29T06:26:19.245Z,13.43
2022-11-29T06:30:27.849Z,12.80
2022-11-29T06:34:38.407Z,13.10
2022-11-29T06:38:41.500Z,12.70
2022-11-29T06:42:45.708Z,12.90
2022-11-29T06:46:52.117Z,12.55
2022-11-29T06:50:59.185Z,13.13
2022-11-29T06:55:11.522Z,13.45
2022-11-29T06:59:33.635Z,12.55
2022-11-29T07:04:03.227Z,12.57
2022-11-29T07:08:07.941Z,12.70
2022-11-29T07:12:11.305Z,13.18
2022-11-29T07:16:23.347Z,12.80
2022-11-29T07:20:35.361Z,13.70
2022-11-29T07:24:50.652Z,14.32
2022-11-29T07:29:10.477Z,15.02
2022-11-29T07:33:21.545Z,13.43
2022-11-29T07:37:36.387Z,15.20
2022-11-29T07:41:47.325Z,16.13
2022-11-29T07:45:50.344Z,15.20
2022-11-29T07:49:54.391Z,15.00
2022-11-29T07:53:56.978Z,15.02
2022-11-29T07:57:59.684Z,14.37
2022-11-29T08:02:04.675Z,14.30
2022-11-29T08:06:12.848Z,15.38
2022-11-29T08:10:17.302Z,16.95
2022-11-29T08:14:19.911Z,15.68
2022-11-29T08:18:22.654Z,15.77
2022-11-29T08:22:26.666Z,15.87
2022-11-29T08:26:31.787Z,16.17
2022-11-29T08:30:34.696Z,15.20
2022-11-29T08:34:37.364Z,16.63
2022-11-29T08:38:41.399Z,15.53
2022-11-29T08:42:44.126Z,15.82
2022-11-29T08:47:18.848Z,15.97
2022-11-29T08:51:21.437Z,14.88
2022-11-29T08:55:28.314Z,15.10
2022-11-29T08:59:30.939Z,15.15
2022-11-29T09:03:51.481Z,13.70
2022-11-29T09:07:54.130Z,13.80
2022-11-29T09:11:58.149Z,12.53
2022-11-29T09:16:00.757Z,13.70
2022-11-29T09:20:04.199Z,12.77
2022-11-29T09:24:07.955Z,11.70
2022-11-29T09:28:12.566Z,13.05
2022-11-29T09:32:15.158Z,12.93
2022-11-29T09:36:17.815Z,12.40
2022-11-29T09:40:23.994Z,14.03
2022-11-29T09:44:38.965Z,11.20
2022-11-29T09:49:03.723Z,12.18
2022-11-29T09:53:20.737Z,12.48
2022-11-29T09:57:24.960Z,12.98
2022-11-29T10:01:32.234Z,13.82
2022-11-29T10:05:40.052Z,12.57
2022-11-29T10:09:47.898Z,12.27
2022-11-29T10:13:55.261Z,11.13
2022-11-29T10:18:05.642Z,12.55
2022-11-29T10:22:19.120Z,10.70
2022-11-29T10:26:23.028Z,10.75
2022-11-29T10:30:25.792Z,11.05
2022-11-29T10:34:32.335Z,10.93
2022-11-29T10:38:34.948Z,11.30
2022-11-29T10:42:53.106Z,11.73
2022-11-29T10:46:57.075Z,10.82
2022-11-29T10:51:02.355Z,11.15
2022-11-29T10:55:05.949Z,10.90
2022-11-29T10:59:19.620Z,10.52
2022-11-29T11:07:36.200Z,10.57
2022-11-29T11:11:39.891Z,11.20
2022-11-29T11:15:42.536Z,10.98
2022-11-29T11:19:56.006Z,11.77
2022-11-29T11:24:02.679Z,11.40
2022-11-29T11:28:20.346Z,11.10
2022-11-29T11:32:23.279Z,10.52
2022-11-29T11:36:28.150Z,11.77
2022-11-29T11:40:32.754Z,11.10
2022-11-29T11:44:48.618Z,12.00
2022-11-29T11:48:52.568Z,11.57
2022-11-29T11:52:57.911Z,11.23
2022-11-29T11:57:02.162Z,10.75
2022-11-29T12:01:17.064Z,12.05
2022-11-29T12:05:21.290Z,10.43
2022-11-29T12:09:36.923Z,8.48
2022-11-29T12:13:46.008Z,7.93
2022-11-29T12:17:52.580Z,8.70
2022-11-29T12:22:03.685Z,9.02
2022-11-29T12:26:19.106Z,8.23
2022-11-29T12:30:27.953Z,8.82
2022-11-29T12:34:47.090Z,8.77
2022-11-29T12:39:00.986Z,9.02
2022-11-29T12:43:12.461Z,9.65
2022-11-29T12:47:35.774Z,8.45
2022-11-29T12:51:47.576Z,9.70
2022-11-29T12:55:58.195Z,9.35
2022-11-29T13:00:09.029Z,10.25
2022-11-29T13:04:29.915Z,9.75
2022-11-29T13:08:47.376Z,10.07
2022-11-29T13:12:54.502Z,8.73
2022-11-29T13:17:00.395Z,9.18
2022-11-29T13:21:11.647Z,9.30
2022-11-29T13:25:19.770Z,10.27
2022-11-29T13:29:22.936Z,10.45
2022-11-29T13:33:31.390Z,10.93
2022-11-29T13:37:43.854Z,10.15
2022-11-29T13:41:55.868Z,12.13
2022-11-29T13:46:06.370Z,15.30
2022-11-29T13:50:38.893Z,14.90
2022-11-29T13:54:42.977Z,15.30
2022-11-29T13:58:45.745Z,15.75
2022-11-29T14:02:48.448Z,15.47
2022-11-29T14:07:01.980Z,16.53
2022-11-29T14:11:09.507Z,17.92
2022-11-29T14:15:23.852Z,16.42
2022-11-29T14:19:33.462Z,16.02
2022-11-29T14:23:42.182Z,11.40
2022-11-29T14:27:57.481Z,10.93
2022-11-29T14:32:00.912Z,10.93
2022-11-29T14:36:21.029Z,10.25
2022-11-29T14:40:30.002Z,10.70
2022-11-29T14:44:35.322Z,10.60
2022-11-29T14:48:39.158Z,11.68
2022-11-29T14:52:51.854Z,10.60
2022-11-29T14:56:54.516Z,12.65
2022-11-29T15:01:10.578Z,11.50
2022-11-29T15:05:18.530Z,10.88
2022-11-29T15:09:21.547Z,10.25
2022-11-29T15:13:28.588Z,11.15
2022-11-29T15:17:43.555Z,10.95
2022-11-29T15:21:55.482Z,11.70
2022-11-29T15:26:01.345Z,10.85
2022-11-29T15:30:19.547Z,10.68
2022-11-29T15:34:31.219Z,12.32
2022-11-29T15:38:43.933Z,11.68
2022-11-29T15:42:50.539Z,12.27
2022-11-29T15:46:57.297Z,12.27
2022-11-29T15:51:05.733Z,13.07
2022-11-29T15:55:14.245Z,12.27
2022-11-29T15:59:25.456Z,18.20
2022-11-29T16:03:31.563Z,17.73
2022-11-29T16:07:37.147Z,21.83
2022-11-29T16:11:40.783Z,16.02
2022-11-29T16:15:43.653Z,14.50
2022-11-29T16:19:46.953Z,15.70
2022-11-29T16:23:52.534Z,15.52
2022-11-29T16:27:55.321Z,15.60
2022-11-29T16:31:58.348Z,15.30
2022-11-29T16:36:06.457Z,15.60
2022-11-29T16:40:21.598Z,16.65
2022-11-29T16:45:09.304Z,15.82
2022-11-29T16:49:35.119Z,14.90
2022-11-29T16:53:39.577Z,16.17
2022-11-29T16:57:42.492Z,14.95
2022-11-29T17:01:45.466Z,15.07
2022-11-29T17:05:49.515Z,14.50
2022-11-29T17:09:52.365Z,14.77
2022-11-29T17:13:55.105Z,14.50
2022-11-29T17:17:57.727Z,13.80
2022-11-29T17:22:02.228Z,12.77
2022-11-29T17:26:04.856Z,14.45
2022-11-29T17:30:11.171Z,14.10
2022-11-29T17:34:14.485Z,16.38
2022-11-29T17:38:18.438Z,16.02
2022-11-29T17:42:21.379Z,15.65
2022-11-29T17:46:26.024Z,15.30
2022-11-29T17:50:28.642Z,14.00
2022-11-29T17:54:33.308Z,16.77
2022-11-29T17:58:37.027Z,16.52
2022-11-29T18:02:39.855Z,16.15
2022-11-29T18:06:43.492Z,17.20
2022-11-29T18:10:47.485Z,17.10
2022-11-29T18:14:50.826Z,17.70
2022-11-29T18:18:55.452Z,17.40
2022-11-29T18:23:03.588Z,18.17
2022-11-29T18:27:10.510Z,18.27
2022-11-29T18:31:15.015Z,18.17
2022-11-29T18:35:17.926Z,18.08
2022-11-29T18:39:23.455Z,20.13
2022-11-29T18:43:27.466Z,17.20
2022-11-29T18:47:32.831Z,18.30
2022-11-29T18:51:36.540Z,17.55
2022-11-29T18:55:39.158Z,18.35
2022-11-29T18:59:43.145Z,18.53
2022-11-29T19:03:47.122Z,18.42
2022-11-29T19:07:49.751Z,16.88
2022-11-29T19:11:52.554Z,17.10
2022-11-29T19:15:56.785Z,17.60
2022-11-29T19:19:59.600Z,18.52
2022-11-29T19:24:04.417Z,18.13
2022-11-29T19:28:13.736Z,16.13
2022-11-29T19:32:18.146Z,17.35
2022-11-29T19:36:22.394Z,18.15
2022-11-29T19:40:24.989Z,18.67
2022-11-29T19:44:29.995Z,18.40
2022-11-29T19:48:34.203Z,21.02
2022-11-29T19:52:36.919Z,19.65
2022-11-29T19:56:39.614Z,19.97
2022-11-29T20:00:42.209Z,19.57
2022-11-29T20:04:49.017Z,18.70
2022-11-29T20:08:51.608Z,16.63
2022-11-29T20:12:54.443Z,16.93
2022-11-29T20:16:57.011Z,16.67
2022-11-29T20:21:05.982Z,15.60
2022-11-29T20:25:09.101Z,16.13
2022-11-29T20:29:13.022Z,15.85
2022-11-29T20:33:20.068Z,16.20
2022-11-29T20:37:43.549Z,16.30
2022-11-29T20:41:56.176Z,17.02
2022-11-29T20:45:59.136Z,18.20
2022-11-29T20:50:02.170Z,17.73
2022-11-29T20:54:06.316Z,18.35
2022-11-29T20:58:08.939Z,17.77
2022-11-29T21:02:11.535Z,17.37
2022-11-29T21:06:14.144Z,18.57
2022-11-29T21:10:18.235Z,16.40
2022-11-29T21:14:21.894Z,16.85
2022-11-29T21:18:27.040Z,15.38
2022-11-29T21:22:40.153Z,14.35
2022-11-29T21:26:51.247Z,14.43
2022-11-29T21:30:54.493Z,14.80
2022-11-29T21:34:57.145Z,14.25
2022-11-29T21:39:04.858Z,15.48
2022-11-29T21:43:09.175Z,15.60
2022-11-29T21:47:11.789Z,15.85
2022-11-29T21:51:14.486Z,16.57
2022-11-29T21:55:17.199Z,18.53
2022-11-29T21:59:21.202Z,17.93
